Time;durP1;ratioP1;P1;durP2;ratioP2;P2;SDS_P1;SDS_P2;PMS_P1;PMS_P2;Temp;Humidity;BMP_temperature;BMP_pressure;BME280_temperature;BME280_humidity;BME280_pressure;Samples;Min_cycle;Max_cycle;Signal;HPM_P1;HPM_P2
2023/12/12 00:02:06;;;;;;;17.30;8.50;;;;;;;-1.31;100.00;100067.75;104866;1259;60543;-55
2023/12/12 00:04:34;;;;;;;13.30;7.90;;;;;;;-1.32;100.00;100066.15;104714;1254;72836;-53
2023/12/12 00:07:01;;;;;;;12.90;6.50;;;;;;;-1.32;100.00;100067.39;105678;1257;65794;-54
2023/12/12 00:09:29;;;;;;;11.70;5.80;;;;;;;-1.32;100.00;100069.50;105014;1254;71443;-55
2023/12/12 00:11:56;;;;;;;9.00;4.60;;;;;;;-1.34;100.00;100070.02;104789;1254;60645;-56
2023/12/12 00:14:24;;;;;;;10.70;5.70;;;;;;;-1.35;100.00;100065.77;105200;1258;60292;-54
2023/12/12 00:16:51;;;;;;;9.40;6.10;;;;;;;-1.34;100.00;100071.06;105112;1257;72119;-54
2023/12/12 00:19:19;;;;;;;9.30;5.40;;;;;;;-1.34;100.00;100074.23;104842;1253;67481;-53
2023/12/12 00:21:48;;;;;;;10.90;5.90;;;;;;;-1.36;100.00;100071.60;104874;1259;72333;-54
2023/12/12 00:24:15;;;;;;;10.00;6.40;;;;;;;-1.36;100.00;100066.68;105828;1253;60536;-56
2023/12/12 00:26:43;;;;;;;8.80;5.10;;;;;;;-1.37;100.00;100067.38;105141;1254;60921;-52
2023/12/12 00:29:10;;;;;;;13.40;8.00;;;;;;;-1.38;100.00;100067.73;109091;1254;73143;-54
2023/12/12 00:31:38;;;;;;;14.20;7.60;;;;;;;-1.38;100.00;100062.44;109038;1253;66636;-55
2023/12/12 00:34:05;;;;;;;10.10;5.90;;;;;;;-1.38;100.00;100062.61;107815;1256;72897;-51
2023/12/12 00:36:33;;;;;;;10.90;7.00;;;;;;;-1.39;100.00;100060.15;104774;1254;60808;-54
2023/12/12 00:39:00;;;;;;;11.10;6.80;;;;;;;-1.39;100.00;100060.67;104774;1254;60558;-54
2023/12/12 00:41:34;;;;;;;12.40;6.70;;;;;;;-1.41;100.00;100055.90;104832;1259;73917;-55
2023/12/12 00:44:01;;;;;;;14.40;8.50;;;;;;;-1.42;100.00;100058.70;104850;1259;65490;-52
2023/12/12 00:46:29;;;;;;;11.60;6.00;;;;;;;-1.42;100.00;100056.42;108807;1254;73156;-55
2023/12/12 00:48:56;;;;;;;12.40;7.20;;;;;;;-1.43;100.00;100059.23;109012;1254;60080;-54
2023/12/12 00:51:24;;;;;;;10.20;6.30;;;;;;;-1.42;100.00;100055.54;109064;1253;60498;-55
2023/12/12 00:53:52;;;;;;;11.50;6.30;;;;;;;-1.41;100.00;100053.62;107119;1253;72945;-53
2023/12/12 00:56:19;;;;;;;14.00;7.90;;;;;;;-1.39;100.00;100043.25;104765;1254;69068;-52
2023/12/12 00:58:46;;;;;;;13.80;7.70;;;;;;;-1.37;100.00;100036.92;104918;1254;73415;-54
2023/12/12 01:01:14;;;;;;;12.00;6.60;;;;;;;-1.36;100.00;100031.64;104771;1254;60441;-52
2023/12/12 01:03:42;;;;;;;13.50;8.60;;;;;;;-1.36;100.00;100031.11;104790;1259;60601;-53
2023/12/12 01:06:10;;;;;;;10.80;6.30;;;;;;;-1.38;100.00;100029.17;104965;1259;72041;-53
2023/12/12 01:08:37;;;;;;;13.30;7.90;;;;;;;-1.41;100.00;100022.81;104683;1254;67019;-53
2023/12/12 01:11:05;;;;;;;13.10;8.50;;;;;;;-1.43;100.00;100019.27;104870;1254;72724;-54
2023/12/12 01:13:32;;;;;;;15.30;8.50;;;;;;;-1.46;100.00;100019.81;105103;1256;61892;-54
2023/12/12 01:16:00;;;;;;;13.20;7.70;;;;;;;-1.50;100.00;100016.43;104743;1259;60608;-54
2023/12/12 01:18:27;;;;;;;12.20;7.40;;;;;;;-1.54;100.00;100017.30;109056;1254;71573;-56
2023/12/12 01:20:55;;;;;;;10.30;6.50;;;;;;;-1.57;100.00;100019.41;105409;1253;65490;-53
2023/12/12 01:23:22;;;;;;;14.60;7.10;;;;;;;-1.59;100.00;100012.52;104822;1259;73182;-51
2023/12/12 01:25:50;;;;;;;11.60;7.20;;;;;;;-1.61;100.00;100002.31;104850;1254;60608;-53
2023/12/12 01:28:17;;;;;;;12.00;7.50;;;;;;;-1.63;100.00;100000.91;104995;1254;60642;-55
2023/12/12 01:30:45;;;;;;;11.10;6.70;;;;;;;-1.66;100.00;99999.65;104895;1254;74432;-55
2023/12/12 01:33:12;;;;;;;9.90;6.30;;;;;;;-1.67;100.00;100003.69;104816;1259;66026;-51
2023/12/12 01:35:40;;;;;;;11.60;6.10;;;;;;;-1.68;100.00;100004.20;104738;1254;73146;-53
2023/12/12 01:38:08;;;;;;;13.90;7.60;;;;;;;-1.66;100.00;99998.41;104939;1254;61118;-53
2023/12/12 01:40:35;;;;;;;14.80;8.10;;;;;;;-1.65;100.00;99991.02;104909;1258;60528;-55
2023/12/12 01:43:05;;;;;;;16.30;8.70;;;;;;;-1.66;100.00;99987.50;104701;1259;72630;-53
2023/12/12 01:45:33;;;;;;;13.10;7.90;;;;;;;-1.65;100.00;99986.98;104955;1256;65313;-55
2023/12/12 01:48:00;;;;;;;13.60;7.50;;;;;;;-1.65;100.00;99989.11;104996;1259;71450;-53
2023/12/12 01:50:28;;;;;;;14.10;7.70;;;;;;;-1.65;100.00;99988.05;105062;1259;60614;-52
2023/12/12 01:52:55;;;;;;;13.00;7.30;;;;;;;-1.67;100.00;99983.11;102197;1255;3501512;-52
2023/12/12 01:56:59;;;;;;;14.30;8.10;;;;;;;-1.76;100.00;100066.96;101876;1292;600384;-52
2023/12/12 01:59:27;;;;;;;13.50;6.90;;;;;;;-1.79;100.00;100080.52;104197;1266;59804;-54
2023/12/12 02:01:54;;;;;;;12.60;7.50;;;;;;;-1.80;100.00;100070.66;104043;1269;59326;-53
2023/12/12 02:04:22;;;;;;;12.80;7.40;;;;;;;-1.81;100.00;100058.16;104094;1266;72283;-53
2023/12/12 02:06:50;;;;;;;13.00;6.90;;;;;;;-1.80;100.00;100052.89;104171;1267;65698;-53
2023/12/12 02:09:17;;;;;;;12.70;6.30;;;;;;;-1.80;100.00;100042.16;104421;1266;72720;-53
2023/12/12 02:11:45;;;;;;;14.20;7.60;;;;;;;-1.77;100.00;100026.66;102268;1261;3557158;-53
2023/12/12 02:14:12;;;;;;;12.60;6.10;;;;;;;-1.75;100.00;100021.41;104817;1254;59318;-54
2023/12/12 02:16:40;;;;;;;15.70;7.50;;;;;;;-1.73;100.00;100016.15;105113;1254;60906;-53
2023/12/12 02:19:07;;;;;;;14.80;7.30;;;;;;;-1.72;100.00;100012.99;105091;1254;65658;-54
2023/12/12 02:21:35;;;;;;;14.20;8.30;;;;;;;-1.72;100.00;100006.48;104882;1253;72740;-54
2023/12/12 02:24:03;;;;;;;15.60;9.10;;;;;;;-1.73;100.00;100003.84;105023;1254;59698;-54
2023/12/12 02:26:30;;;;;;;19.60;9.50;;;;;;;-1.75;100.00;100002.59;105131;1256;59663;-53
2023/12/12 02:28:58;;;;;;;16.10;7.80;;;;;;;-1.76;100.00;99997.30;105726;1255;73562;-53
2023/12/12 02:31:25;;;;;;;17.00;8.00;;;;;;;-1.77;100.00;99993.23;105235;1257;65478;-53
2023/12/12 02:33:53;;;;;;;16.60;8.00;;;;;;;-1.77;100.00;99988.85;105345;1254;72745;-54
2023/12/12 02:36:21;;;;;;;15.50;8.50;;;;;;;-1.77;100.00;99986.21;104936;1256;61335;-55
2023/12/12 02:38:48;;;;;;;18.60;8.30;;;;;;;-1.76;100.00;99983.23;105202;1256;59702;-54
2023/12/12 02:41:16;;;;;;;16.70;9.50;;;;;;;-1.76;100.00;99984.46;105024;1257;72991;-54
2023/12/12 02:43:43;;;;;;;16.30;8.20;;;;;;;-1.76;100.00;99985.34;104914;1256;65585;-53
2023/12/12 02:46:10;;;;;;;16.90;9.30;;;;;;;-1.75;100.00;99982.53;105042;1258;73211;-54
2023/12/12 02:48:38;;;;;;;16.10;9.20;;;;;;;-1.75;100.00;99981.83;104959;1254;59724;-54
2023/12/12 02:51:06;;;;;;;17.30;9.20;;;;;;;-1.75;100.00;99976.91;108195;1252;59823;-55
2023/12/12 02:53:33;;;;;;;15.70;8.50;;;;;;;-1.77;100.00;99969.85;104956;1260;74059;-53
2023/12/12 02:56:01;;;;;;;17.10;9.30;;;;;;;-1.77;100.00;99965.98;105048;1257;66720;-51
2023/12/12 02:58:28;;;;;;;15.20;7.80;;;;;;;-1.79;100.00;99962.30;104870;1260;71461;-52
2023/12/12 03:00:56;;;;;;;10.10;6.70;;;;;;;-1.80;100.00;99964.05;105665;1256;60107;-52
2023/12/12 03:03:23;;;;;;;10.60;6.20;;;;;;;-1.80;100.00;99964.58;105628;1256;59997;-53
2023/12/12 03:05:51;;;;;;;9.20;5.30;;;;;;;-1.81;100.00;99959.30;105348;1252;73178;-52
2023/12/12 03:08:18;;;;;;;9.60;5.60;;;;;;;-1.80;100.00;99963.88;105208;1256;67516;-53
2023/12/12 03:10:47;;;;;;;7.90;4.70;;;;;;;-1.81;100.00;99964.75;105031;1254;72828;-52
2023/12/12 03:13:14;;;;;;;7.20;4.10;;;;;;;-1.83;100.00;99961.56;105069;1256;59950;-53
2023/12/12 03:15:42;;;;;;;8.00;3.60;;;;;;;-1.87;100.00;99962.06;107772;1256;58800;-52
2023/12/12 03:18:09;;;;;;;5.80;3.50;;;;;;;-1.92;100.00;99956.24;104975;1260;71724;-52
2023/12/12 03:20:37;;;;;;;4.60;2.90;;;;;;;-1.95;100.00;99955.15;106384;1256;65477;-53
2023/12/12 03:23:04;;;;;;;5.90;3.50;;;;;;;-1.97;100.00;99960.80;105066;1257;72718;-53
2023/12/12 03:25:32;;;;;;;4.70;2.70;;;;;;;-1.98;100.00;99973.46;105177;1251;59505;-53
2023/12/12 03:27:59;;;;;;;6.50;3.40;;;;;;;-1.99;100.00;99973.09;105122;1259;59602;-52
2023/12/12 03:30:27;;;;;;;5.90;3.50;;;;;;;-1.99;100.00;99974.67;105056;1257;71841;-52
2023/12/12 03:32:54;;;;;;;8.00;4.10;;;;;;;-2.01;100.00;99972.73;104931;1257;65884;-52
2023/12/12 03:35:22;;;;;;;8.80;4.60;;;;;;;-2.03;100.00;99975.35;104891;1258;72660;-53
2023/12/12 03:37:49;;;;;;;7.40;4.30;;;;;;;-2.05;100.00;99972.70;104876;1256;60075;-53
2023/12/12 03:40:16;;;;;;;7.70;4.50;;;;;;;-2.06;100.00;99972.36;104805;1256;60052;-53
2023/12/12 03:42:44;;;;;;;11.50;4.90;;;;;;;-2.07;100.00;99968.13;109198;1253;73191;-53
2023/12/12 03:45:11;;;;;;;7.10;4.20;;;;;;;-2.06;100.00;99973.23;109174;1255;67575;-53
2023/12/12 03:47:39;;;;;;;8.10;4.40;;;;;;;-2.06;100.00;99970.60;106862;1256;71439;-53
2023/12/12 03:50:07;;;;;;;6.50;4.20;;;;;;;-2.06;100.00;99965.50;105000;1256;59802;-53
2023/12/12 03:52:35;;;;;;;9.00;4.00;;;;;;;-2.06;100.00;99965.66;109144;1251;60558;-53
2023/12/12 03:55:04;;;;;;;8.20;5.10;;;;;;;-2.07;100.00;99962.86;107039;1256;73491;-53
2023/12/12 03:57:31;;;;;;;7.80;4.90;;;;;;;-2.07;100.00;99960.58;109175;1252;66441;-53
2023/12/12 03:59:59;;;;;;;7.50;3.80;;;;;;;-2.06;100.00;99958.30;106065;1255;72847;-53
2023/12/12 04:02:28;;;;;;;6.40;4.00;;;;;;;-2.05;100.00;99961.80;105067;1257;59817;-54
2023/12/12 04:04:56;;;;;;;7.00;4.20;;;;;;;-2.03;100.00;99956.52;109074;1256;59153;-54
2023/12/12 04:07:23;;;;;;;9.20;4.80;;;;;;;-2.01;100.00;99955.14;108869;1251;73102;-53
2023/12/12 04:09:51;;;;;;;9.60;5.50;;;;;;;-2.00;100.00;99953.05;105233;1257;65633;-52
2023/12/12 04:12:18;;;;;;;8.50;4.50;;;;;;;-1.98;100.00;99958.33;104900;1253;73105;-51
2023/12/12 04:14:45;;;;;;;9.40;4.80;;;;;;;-1.99;100.00;99954.27;104958;1254;59692;-53
2023/12/12 04:17:13;;;;;;;11.00;5.30;;;;;;;-2.01;100.00;99954.79;105064;1259;59675;-53
2023/12/12 04:19:40;;;;;;;7.60;4.40;;;;;;;-2.02;100.00;99951.96;105126;1251;73064;-52
2023/12/12 04:22:08;;;;;;;10.10;5.00;;;;;;;-2.02;100.00;99956.71;104788;1254;65844;-53
2023/12/12 04:24:35;;;;;;;9.70;5.10;;;;;;;-2.01;100.00;99972.90;104862;1254;72697;-53
2023/12/12 04:27:03;;;;;;;10.60;4.80;;;;;;;-2.00;100.00;99970.27;104930;1257;60902;-53
2023/12/12 04:29:31;;;;;;;10.90;6.00;;;;;;;-1.97;100.00;99973.63;104842;1253;60674;-53
2023/12/12 04:31:58;;;;;;;8.50;4.60;;;;;;;-1.94;100.00;99977.86;104954;1251;72593;-53
2023/12/12 04:34:25;;;;;;;10.60;4.90;;;;;;;-1.92;100.00;99978.94;104834;1254;66743;-54
2023/12/12 04:36:53;;;;;;;8.00;4.90;;;;;;;-1.88;100.00;99981.25;104969;1251;73526;-54
2023/12/12 04:39:20;;;;;;;9.90;4.20;;;;;;;-1.89;100.00;99973.52;104849;1255;61487;-54
2023/12/12 04:41:48;;;;;;;10.70;4.50;;;;;;;-1.90;100.00;99971.56;104959;1254;60044;-55
2023/12/12 04:44:15;;;;;;;8.80;4.80;;;;;;;-1.90;100.00;99969.63;105179;1256;73080;-53
2023/12/12 04:46:42;;;;;;;8.20;3.50;;;;;;;-1.91;100.00;99968.57;104926;1257;67418;-56
2023/12/12 04:49:10;;;;;;;7.10;3.40;;;;;;;-1.93;100.00;99963.27;104806;1251;71780;-52
2023/12/12 04:51:38;;;;;;;5.80;2.90;;;;;;;-1.95;100.00;99963.08;104893;1254;59736;-52
2023/12/12 04:54:05;;;;;;;8.30;4.20;;;;;;;-1.95;100.00;99966.77;105202;1256;59619;-53
2023/12/12 04:56:33;;;;;;;8.00;3.90;;;;;;;-1.96;100.00;99966.60;104970;1263;72293;-53
2023/12/12 04:59:00;;;;;;;8.30;4.50;;;;;;;-1.97;100.00;99963.27;105053;1255;65801;-54
2023/12/12 05:01:28;;;;;;;11.00;5.60;;;;;;;-1.96;100.00;99960.63;104979;1258;72719;-53
2023/12/12 05:03:55;;;;;;;8.80;4.60;;;;;;;-1.95;100.00;99959.21;105008;1256;59700;-53
2023/12/12 05:06:23;;;;;;;7.50;4.30;;;;;;;-1.94;100.00;99963.44;105394;1251;59702;-54
2023/12/12 05:08:51;;;;;;;7.70;4.30;;;;;;;-1.94;100.00;99958.16;105062;1254;71810;-54
2023/12/12 05:11:18;;;;;;;8.40;4.20;;;;;;;-1.95;100.00;99958.67;105097;1251;67395;-54
2023/12/12 05:13:45;;;;;;;9.20;4.90;;;;;;;-1.95;100.00;99957.97;105109;1255;71439;-52
2023/12/12 05:16:13;;;;;;;8.70;4.30;;;;;;;-1.93;100.00;99951.48;104912;1253;60161;-53
2023/12/12 05:18:57;;;;;;;9.60;4.00;;;;;;;-1.92;100.00;99945.52;105108;1257;59615;-52
2023/12/12 05:21:26;;;;;;;7.90;4.70;;;;;;;-1.91;100.00;99937.25;105125;1255;71842;-53
2023/12/12 05:23:53;;;;;;;9.30;4.90;;;;;;;-1.91;100.00;99937.26;105537;1254;66982;-53
2023/12/12 05:26:21;;;;;;;8.70;4.40;;;;;;;-1.90;100.00;99941.66;104965;1256;71540;-53
2023/12/12 05:28:48;;;;;;;10.40;4.80;;;;;;;-1.92;100.00;99943.77;105056;1254;59775;-53
2023/12/12 05:31:16;;;;;;;8.50;4.00;;;;;;;-1.93;100.00;99944.80;105484;1257;59932;-54
2023/12/12 05:33:44;;;;;;;12.30;5.30;;;;;;;-1.92;100.00;99942.36;105040;1257;73039;-54
2023/12/12 05:36:11;;;;;;;10.90;5.40;;;;;;;-1.92;100.00;99941.30;105104;1251;65994;-54
2023/12/12 05:38:39;;;;;;;7.60;4.70;;;;;;;-1.89;100.00;99942.02;105153;1256;71609;-53
2023/12/12 05:41:06;;;;;;;6.00;3.60;;;;;;;-1.86;100.00;99941.84;105670;1256;59097;-53
2023/12/12 05:43:34;;;;;;;6.80;3.70;;;;;;;-1.86;100.00;99951.34;105155;1256;59657;-53
2023/12/12 05:46:02;;;;;;;6.40;3.40;;;;;;;-1.85;100.00;99952.74;104956;1255;73792;-52
2023/12/12 05:48:30;;;;;;;7.50;4.10;;;;;;;-1.84;100.00;99959.09;105417;1254;67349;-53
2023/12/12 05:50:58;;;;;;;7.90;4.10;;;;;;;-1.85;100.00;99966.83;104863;1254;71518;-53
2023/12/12 05:53:26;;;;;;;7.90;3.70;;;;;;;-1.87;100.00;99977.02;105005;1256;59689;-53
2023/12/12 05:55:55;;;;;;;6.60;3.70;;;;;;;-1.88;100.00;99974.39;105768;1251;59936;-54
2023/12/12 05:58:24;;;;;;;5.40;3.00;;;;;;;-1.89;100.00;99977.02;105115;1251;71861;-53
2023/12/12 06:00:52;;;;;;;7.20;3.50;;;;;;;-1.88;100.00;99972.45;105807;1255;67128;-53
2023/12/12 06:03:20;;;;;;;6.40;3.70;;;;;;;-1.85;100.00;99968.58;105119;1255;72619;-52
2023/12/12 06:05:47;;;;;;;7.90;4.00;;;;;;;-1.83;100.00;99974.58;104935;1257;60444;-54
2023/12/12 06:08:15;;;;;;;9.90;3.60;;;;;;;-1.81;100.00;99980.77;104976;1257;60402;-53
2023/12/12 06:10:43;;;;;;;9.00;4.50;;;;;;;-1.80;100.00;99988.52;105226;1254;72631;-54
2023/12/12 06:13:10;;;;;;;6.50;3.90;;;;;;;-1.78;100.00;99989.38;105209;1251;66001;-53
2023/12/12 06:15:38;;;;;;;6.20;4.10;;;;;;;-1.78;100.00;99988.50;105012;1257;71452;-53
2023/12/12 06:18:06;;;;;;;9.30;5.60;;;;;;;-1.78;100.00;99985.67;105086;1258;60616;-54
2023/12/12 06:20:35;;;;;;;6.40;4.10;;;;;;;-1.77;100.00;99980.93;108830;1251;59225;-54
2023/12/12 06:23:02;;;;;;;7.90;4.40;;;;;;;-1.77;100.00;99983.04;105590;1251;72683;-53
2023/12/12 06:25:30;;;;;;;7.80;4.40;;;;;;;-1.78;100.00;99981.10;105057;1251;69473;-53
2023/12/12 06:27:57;;;;;;;10.70;5.30;;;;;;;-1.76;100.00;99981.30;107629;1251;72705;-54
2023/12/12 06:30:25;;;;;;;9.60;5.10;;;;;;;-1.75;100.00;99976.91;104913;1253;60607;-53
2023/12/12 06:32:55;;;;;;;8.60;5.30;;;;;;;-1.73;100.00;99985.36;105085;1252;60450;-53
2023/12/12 06:35:23;;;;;;;10.20;5.10;;;;;;;-1.72;100.00;99990.13;109106;1251;74539;-54
2023/12/12 06:37:50;;;;;;;12.70;7.10;;;;;;;-1.72;100.00;99996.11;109165;1254;66928;-54
2023/12/12 06:40:18;;;;;;;11.40;6.40;;;;;;;-1.72;100.00;99993.11;109137;1251;72698;-54
2023/12/12 06:42:46;;;;;;;12.70;6.40;;;;;;;-1.70;100.00;99983.61;109126;1251;61499;-54
2023/12/12 06:45:13;;;;;;;12.10;5.30;;;;;;;-1.68;100.00;99979.92;109145;1250;59221;-55
2023/12/12 06:47:41;;;;;;;6.70;4.10;;;;;;;-1.64;100.00;99981.02;109222;1251;73827;-54
2023/12/12 06:50:09;;;;;;;7.90;4.30;;;;;;;-1.60;100.00;99981.72;109109;1251;66884;-54
2023/12/12 06:52:36;;;;;;;7.00;4.80;;;;;;;-1.56;100.00;99981.39;109145;1251;72853;-54
2023/12/12 06:55:05;;;;;;;9.40;4.70;;;;;;;-1.54;100.00;99979.80;109139;1251;60944;-54
2023/12/12 06:57:33;;;;;;;9.20;4.90;;;;;;;-1.51;100.00;99978.40;109148;1251;60667;-54
2023/12/12 07:00:00;;;;;;;12.10;6.50;;;;;;;-1.50;100.00;99975.42;109155;1251;73056;-54
2023/12/12 07:02:29;;;;;;;10.90;5.90;;;;;;;-1.50;100.00;99969.44;109103;1251;65819;-54
2023/12/12 07:04:57;;;;;;;10.10;5.90;;;;;;;-1.50;100.00;99973.48;107594;1253;72721;-53
2023/12/12 07:07:24;;;;;;;8.30;4.20;;;;;;;-1.49;100.00;99979.30;105146;1254;60533;-53
2023/12/12 07:09:51;;;;;;;7.20;3.50;;;;;;;-1.50;100.00;99978.42;105098;1257;60746;-53
2023/12/12 07:12:26;;;;;;;;;;;;;;;-1.49;100.00;99984.76;105019;1251;72620;-53
2023/12/12 07:14:54;;;;;;;7.20;3.90;;;;;;;-1.49;100.00;99993.56;105066;1260;67204;-53
2023/12/12 07:17:22;;;;;;;6.80;3.30;;;;;;;-1.48;100.00;99992.15;105031;1257;73158;-53
2023/12/12 07:19:50;;;;;;;6.70;4.10;;;;;;;-1.46;100.00;99991.48;105415;1251;60425;-53
2023/12/12 07:22:18;;;;;;;7.30;4.60;;;;;;;-1.45;100.00;99988.66;105169;1251;60504;-54
2023/12/12 07:24:46;;;;;;;8.90;4.60;;;;;;;-1.43;100.00;99988.46;105129;1251;72638;-53
2023/12/12 07:27:14;;;;;;;8.90;4.50;;;;;;;-1.43;100.00;99987.77;105132;1251;65663;-53
2023/12/12 07:29:41;;;;;;;6.00;3.00;;;;;;;-1.45;100.00;99985.31;104931;1255;73140;-53
2023/12/12 07:32:09;;;;;;;4.20;2.40;;;;;;;-1.47;100.00;99987.77;105059;1256;61309;-52
2023/12/12 07:34:36;;;;;;;4.00;2.10;;;;;;;-1.49;100.00;99993.91;105000;1251;60472;-52
2023/12/12 07:37:04;;;;;;;3.40;1.70;;;;;;;-1.53;100.00;99994.78;104929;1254;73850;-53
2023/12/12 07:39:31;;;;;;;7.70;3.90;;;;;;;-1.54;100.00;100001.12;106178;1251;65314;-52
2023/12/12 07:41:59;;;;;;;6.30;2.40;;;;;;;-1.55;100.00;100001.30;105172;1251;72647;-52
2023/12/12 07:44:26;;;;;;;4.80;2.90;;;;;;;-1.54;100.00;100003.05;105132;1257;59350;-53
2023/12/12 07:46:53;;;;;;;3.50;2.00;;;;;;;-1.52;100.00;100008.67;105129;1251;60424;-53
2023/12/12 07:49:21;;;;;;;3.00;2.00;;;;;;;-1.49;100.00;100012.56;104843;1254;73827;-53
2023/12/12 07:51:49;;;;;;;3.90;2.60;;;;;;;-1.45;100.00;100012.94;104996;1251;65768;-53
2023/12/12 07:54:16;;;;;;;4.50;2.80;;;;;;;-1.43;100.00;100016.63;105854;1257;72708;-53
2023/12/12 07:56:44;;;;;;;3.30;2.10;;;;;;;-1.42;100.00;100021.73;105076;1253;60697;-53
2023/12/12 07:59:11;;;;;;;3.80;1.80;;;;;;;-1.42;100.00;100024.73;105143;1257;60965;-53
2023/12/12 08:01:39;;;;;;;2.20;1.60;;;;;;;-1.43;100.00;100012.94;105199;1250;73949;-53
2023/12/12 08:04:07;;;;;;;5.20;2.40;;;;;;;-1.42;100.00;100007.66;105899;1250;67815;-54
2023/12/12 08:06:35;;;;;;;3.70;2.20;;;;;;;-1.42;100.00;100002.73;105216;1254;71481;-53
2023/12/12 08:09:03;;;;;;;6.50;3.60;;;;;;;-1.40;100.00;100000.28;107542;1253;59222;-52
2023/12/12 08:11:31;;;;;;;5.60;2.90;;;;;;;-1.39;100.00;100005.05;105703;1253;60655;-52
2023/12/12 08:14:00;;;;;;;4.80;2.60;;;;;;;-1.40;100.00;100002.58;105005;1256;73321;-53
2023/12/12 08:16:27;;;;;;;5.50;3.30;;;;;;;-1.40;100.00;100008.20;105101;1256;65963;-52
2023/12/12 08:18:55;;;;;;;4.90;2.70;;;;;;;-1.39;100.00;100010.50;105080;1256;71773;-53
2023/12/12 08:21:23;;;;;;;4.70;2.60;;;;;;;-1.39;100.00;100004.52;104986;1252;60505;-54
2023/12/12 08:23:50;;;;;;;3.10;2.10;;;;;;;-1.38;100.00;99995.20;105262;1250;61432;-52
2023/12/12 08:26:17;;;;;;;2.80;2.40;;;;;;;-1.39;100.00;99996.77;105246;1251;73775;-53
2023/12/12 08:28:45;;;;;;;5.70;3.50;;;;;;;-1.40;100.00;99993.95;105056;1251;65497;-52
2023/12/12 08:31:13;;;;;;;6.80;3.50;;;;;;;-1.40;100.00;100003.80;104916;1251;72733;-51
2023/12/12 08:33:42;;;;;;;4.30;3.60;;;;;;;-1.40;100.00;100008.02;105444;1249;61671;-52
2023/12/12 08:36:10;;;;;;;5.30;2.80;;;;;;;-1.41;100.00;100008.73;105037;1256;60542;-53
2023/12/12 08:38:38;;;;;;;5.00;3.50;;;;;;;-1.40;100.00;100010.14;105019;1256;72633;-52
2023/12/12 08:41:05;;;;;;;4.30;2.80;;;;;;;-1.38;100.00;100013.50;105203;1256;65728;-52
2023/12/12 08:43:39;;;;;;;6.00;2.90;;;;;;;-1.35;100.00;100017.02;105685;1254;71435;-53
2023/12/12 08:46:07;;;;;;;7.80;5.80;;;;;;;-1.32;100.00;100014.40;105415;1255;60492;-53
2023/12/12 08:48:34;;;;;;;16.70;10.30;;;;;;;-1.30;100.00;100017.93;105185;1256;60444;-53
2023/12/12 08:51:03;;;;;;;12.70;7.20;;;;;;;-1.30;100.00;100023.40;105106;1256;73357;-53
2023/12/12 08:53:30;;;;;;;11.10;7.10;;;;;;;-1.28;100.00;100026.92;105165;1254;66713;-53
2023/12/12 08:55:58;;;;;;;69.90;43.40;;;;;;;-1.26;100.00;100020.39;105029;1256;71614;-52
2023/12/12 08:58:25;;;;;;;56.30;34.20;;;;;;;-1.25;100.00;100025.51;105135;1256;60429;-53
2023/12/12 09:00:53;;;;;;;77.90;48.20;;;;;;;-1.23;100.00;100024.30;105599;1250;60467;-52
2023/12/12 09:03:22;;;;;;;114.40;70.60;;;;;;;-1.20;100.00;100017.61;106387;1250;72654;-52
2023/12/12 09:05:49;;;;;;;22.90;16.00;;;;;;;-1.19;100.00;100018.83;106263;1251;66260;-53
2023/12/12 09:08:17;;;;;;;25.30;14.10;;;;;;;-1.16;100.00;100012.69;105086;1250;74324;-53
2023/12/12 09:10:44;;;;;;;36.60;22.90;;;;;;;-1.13;100.00;100010.23;105143;1250;60428;-54
2023/12/12 09:13:12;;;;;;;16.50;11.20;;;;;;;-1.09;100.00;100006.01;105044;1254;60912;-53
2023/12/12 09:15:39;;;;;;;13.30;9.40;;;;;;;-1.07;100.00;100000.38;104888;1256;73910;-52
2023/12/12 09:18:07;;;;;;;10.10;6.20;;;;;;;-1.05;100.00;99996.34;105078;1251;67738;-53
2023/12/12 09:20:47;;;;;;;24.40;14.80;;;;;;;-0.99;100.00;100008.85;105490;1254;73118;-53
2023/12/12 09:23:15;;;;;;;8.00;5.70;;;;;;;-0.97;100.00;100010.09;105833;1253;60868;-53
2023/12/12 09:25:43;;;;;;;14.00;8.90;;;;;;;-0.93;100.00;100006.76;109210;1250;60496;-53
2023/12/12 09:28:10;;;;;;;9.10;6.20;;;;;;;-0.91;100.00;100001.29;105389;1253;73915;-53
2023/12/12 09:30:38;;;;;;;7.90;5.10;;;;;;;-0.89;100.00;99995.31;105258;1257;66375;-53
2023/12/12 09:33:06;;;;;;;8.60;7.00;;;;;;;-0.89;100.00;99986.34;105099;1250;72685;-53
2023/12/12 09:35:37;;;;;;;7.70;5.30;;;;;;;-0.87;100.00;99979.11;105296;1251;60479;-52
2023/12/12 09:38:05;;;;;;;8.90;5.70;;;;;;;-0.87;100.00;99981.05;105294;1250;61437;-53
2023/12/12 09:40:34;;;;;;;9.60;6.90;;;;;;;-0.87;100.00;99979.47;108824;1250;72641;-52
2023/12/12 09:43:03;;;;;;;10.40;7.30;;;;;;;-0.87;100.00;99972.42;105394;1251;66105;-52
2023/12/12 09:45:31;;;;;;;7.70;4.80;;;;;;;-0.86;100.00;99966.95;105826;1256;71378;-53
2023/12/12 09:47:58;;;;;;;9.60;5.80;;;;;;;-0.83;100.00;99962.54;105270;1257;60549;-53
2023/12/12 09:50:26;;;;;;;7.70;4.80;;;;;;;-0.79;100.00;99967.31;105280;1256;60435;-53
2023/12/12 09:52:53;;;;;;;6.90;4.70;;;;;;;-0.76;100.00;99965.02;105176;1256;75840;-54
2023/12/12 09:55:25;;;;;;;4.90;3.10;;;;;;;-0.74;100.00;99967.66;105082;1256;67017;-52
2023/12/12 09:57:53;;;;;;;4.30;3.80;;;;;;;-0.72;100.00;99971.71;108495;1253;71860;-53
2023/12/12 10:00:21;;;;;;;5.90;3.80;;;;;;;-0.71;100.00;99978.95;104972;1252;61826;-53
2023/12/12 10:02:50;;;;;;;6.20;3.10;;;;;;;-0.70;100.00;99981.42;105753;1250;60415;-54
2023/12/12 10:05:18;;;;;;;5.40;3.50;;;;;;;-0.68;100.00;99980.54;106088;1250;72709;-53
2023/12/12 10:07:46;;;;;;;7.70;4.80;;;;;;;-0.68;100.00;99974.90;104959;1257;65982;-53
2023/12/12 10:10:24;;;;;;;8.20;4.90;;;;;;;-0.66;100.00;99975.77;105088;1250;72745;-53
2023/12/12 10:12:51;;;;;;;8.00;4.50;;;;;;;-0.63;100.00;99983.70;109284;1251;58369;-52
2023/12/12 10:15:26;;;;;;;9.70;6.30;;;;;;;-0.61;100.00;99978.79;109191;1251;58863;-53
2023/12/12 10:18:02;;;;;;;8.10;5.20;;;;;;;-0.60;100.00;99980.02;106684;1250;75016;-53
2023/12/12 10:20:30;;;;;;;8.20;4.90;;;;;;;-0.60;100.00;99978.08;105068;1251;65980;-52
2023/12/12 10:23:00;;;;;;;16.60;8.20;;;;;;;-0.59;100.00;99978.40;107828;1251;70660;-53
2023/12/12 10:25:28;;;;;;;13.60;7.80;;;;;;;-0.60;100.00;99979.66;105378;1252;60425;-53
2023/12/12 10:27:57;;;;;;;29.10;16.20;;;;;;;-0.62;100.00;99979.13;104985;1250;60300;-52
2023/12/12 10:30:26;;;;;;;22.60;15.20;;;;;;;-0.61;100.00;99980.19;105569;1251;73794;-52
2023/12/12 10:32:54;;;;;;;28.90;14.70;;;;;;;-0.61;100.00;99981.95;105458;1256;67061;-52
2023/12/12 10:35:23;;;;;;;31.00;15.00;;;;;;;-0.60;100.00;99981.95;105634;1251;70619;-54
2023/12/12 10:37:51;;;;;;;29.30;13.00;;;;;;;-0.58;100.00;99984.23;105194;1251;60524;-53
2023/12/12 10:40:21;;;;;;;61.80;29.10;;;;;;;-0.56;100.00;99983.88;105062;1253;60457;-54
2023/12/12 10:42:50;;;;;;;38.80;16.80;;;;;;;-0.53;100.00;99987.24;105292;1250;72633;-53
2023/12/12 10:45:20;;;;;;;10.00;5.40;;;;;;;-0.51;100.00;99983.90;104976;1256;67648;-54
2023/12/12 10:47:49;;;;;;;14.40;7.00;;;;;;;-0.50;100.00;99988.64;105278;1253;73741;-54
2023/12/12 10:50:18;;;;;;;10.90;5.80;;;;;;;-0.46;100.00;99992.00;105433;1254;61849;-52
2023/12/12 10:52:48;;;;;;;9.80;4.90;;;;;;;-0.41;100.00;99989.34;105064;1251;60521;-53
2023/12/12 10:55:18;;;;;;;22.30;12.60;;;;;;;-0.34;100.00;99991.80;105207;1251;73943;-53
2023/12/12 10:57:47;;;;;;;24.60;13.60;;;;;;;-0.31;100.00;99999.04;105684;1250;67318;-53
2023/12/12 11:00:16;;;;;;;17.20;8.90;;;;;;;-0.28;100.00;99999.92;105862;1253;70749;-54
2023/12/12 11:02:47;;;;;;;32.90;16.90;;;;;;;-0.27;100.00;100008.58;105253;1250;60427;-53
2023/12/12 11:05:16;;;;;;;29.30;15.90;;;;;;;-0.26;100.00;100014.04;105244;1251;60348;-53
2023/12/12 11:07:47;;;;;;;12.00;7.30;;;;;;;-0.27;100.00;100015.45;105986;1251;72616;-52
2023/12/12 11:10:18;;;;;;;20.90;11.30;;;;;;;-0.28;100.00;100014.20;105503;1251;67765;-54
2023/12/12 11:12:55;;;;;;;21.90;12.10;;;;;;;-0.29;100.00;100018.27;105453;1255;71027;-54
2023/12/12 11:15:24;;;;;;;13.60;8.60;;;;;;;-0.31;100.00;100019.14;105035;1253;60495;-52